Time;durP1;ratioP1;P1;durP2;ratioP2;P2;SDS_P1;SDS_P2;PMS_P1;PMS_P2;Temp;Humidity;BMP_temperature;BMP_pressure;BME280_temperature;BME280_humidity;BME280_pressure;Samples;Min_cycle;Max_cycle;Signal;HPM_P1;HPM_P2
2023/01/08 00:01:25;;;;;;;5.05;2.10;;;10.40;80.90;;;;;;5048003;28;20473;-77
2023/01/08 00:03:52;;;;;;;4.23;2.00;;;10.40;81.00;;;;;;5064593;28;20172;-77
2023/01/08 00:06:20;;;;;;;4.05;2.00;;;10.50;80.90;;;;;;5046438;28;20045;-76
2023/01/08 00:08:47;;;;;;;4.10;2.00;;;10.40;80.90;;;;;;5047664;28;20140;-76
2023/01/08 00:11:15;;;;;;;6.55;2.05;;;10.40;80.90;;;;;;5047488;28;20852;-76
2023/01/08 00:13:43;;;;;;;5.18;2.25;;;10.40;81.00;;;;;;5052621;28;20049;-76
2023/01/08 00:16:13;;;;;;;5.03;2.30;;;10.50;81.00;;;;;;5058575;28;20063;-75
2023/01/08 00:18:40;;;;;;;4.47;2.38;;;10.40;81.20;;;;;;5059620;28;20491;-76
2023/01/08 00:21:08;;;;;;;4.30;2.20;;;10.40;81.20;;;;;;5062943;28;20045;-77
2023/01/08 00:23:36;;;;;;;5.70;2.33;;;10.40;81.30;;;;;;5049605;28;20054;-76
2023/01/08 00:26:04;;;;;;;6.25;2.40;;;10.50;81.50;;;;;;5049288;28;20168;-76
2023/01/08 00:28:31;;;;;;;5.90;2.67;;;10.50;81.70;;;;;;5056659;28;20853;-76
2023/01/08 00:31:00;;;;;;;4.78;2.15;;;10.50;82.00;;;;;;5053214;28;20163;-75
2023/01/08 00:33:27;;;;;;;4.60;2.20;;;10.50;82.20;;;;;;5034862;28;20053;-75
2023/01/08 00:35:54;;;;;;;5.03;2.10;;;10.50;82.20;;;;;;5061114;28;20057;-76
2023/01/08 00:38:25;;;;;;;4.30;1.77;;;10.50;82.50;;;;;;5042387;28;20132;-76
2023/01/08 00:40:52;;;;;;;5.20;2.10;;;10.50;82.30;;;;;;5052433;28;20049;-76
2023/01/08 00:43:19;;;;;;;5.30;2.28;;;10.50;82.40;;;;;;5047282;28;20041;-76
2023/01/08 00:45:47;;;;;;;5.10;2.03;;;10.50;82.30;;;;;;5063549;28;20076;-76
2023/01/08 00:48:15;;;;;;;4.70;2.10;;;10.50;82.30;;;;;;5036190;28;20461;-76
2023/01/08 00:50:42;;;;;;;5.20;2.20;;;10.50;82.40;;;;;;5066664;28;20057;-76
2023/01/08 00:53:09;;;;;;;4.07;1.57;;;10.50;82.30;;;;;;5045864;28;20054;-77
2023/01/08 00:55:36;;;;;;;4.90;2.25;;;10.50;82.20;;;;;;5058430;28;21002;-76
2023/01/08 00:58:03;;;;;;;5.55;2.30;;;10.50;82.10;;;;;;5057819;28;20049;-76
2023/01/08 01:00:31;;;;;;;5.43;2.90;;;10.50;82.20;;;;;;5055646;28;20065;-76
2023/01/08 01:02:58;;;;;;;6.22;2.80;;;10.50;82.20;;;;;;5048895;28;20128;-76
2023/01/08 01:05:26;;;;;;;4.13;1.83;;;10.50;82.00;;;;;;5060562;28;20183;-76
2023/01/08 01:07:53;;;;;;;5.78;2.20;;;10.50;81.70;;;;;;5060402;28;20049;-76
2023/01/08 01:10:20;;;;;;;5.35;2.40;;;10.50;81.80;;;;;;5054827;28;20057;-76
2023/01/08 01:12:47;;;;;;;6.13;2.55;;;10.50;81.80;;;;;;5058611;28;20124;-76
2023/01/08 01:15:16;;;;;;;6.80;2.00;;;10.60;80.90;;;;;;5051160;28;20590;-77
2023/01/08 01:17:45;;;;;;;5.73;1.93;;;10.50;80.70;;;;;;5058910;28;20132;-76
2023/01/08 01:20:15;;;;;;;5.28;1.83;;;10.50;80.50;;;;;;5051695;28;21046;-78
2023/01/08 01:22:44;;;;;;;4.47;1.65;;;10.50;80.30;;;;;;5062641;28;20148;-76
2023/01/08 01:25:11;;;;;;;5.43;1.60;;;10.50;80.20;;;;;;5058850;28;20063;-76
2023/01/08 01:27:38;;;;;;;5.53;1.80;;;10.50;80.20;;;;;;5059077;28;20140;-77
2023/01/08 01:30:07;;;;;;;4.97;1.10;;;10.50;80.00;;;;;;5055040;28;20045;-77
2023/01/08 01:32:35;;;;;;;3.92;1.10;;;10.40;79.40;;;;;;5050946;28;20057;-76
2023/01/08 01:35:02;;;;;;;4.30;1.27;;;10.40;79.40;;;;;;5059794;28;20052;-76
2023/01/08 01:37:30;;;;;;;3.58;0.95;;;10.30;79.00;;;;;;5058170;28;20053;-76
2023/01/08 01:39:58;;;;;;;5.10;1.00;;;10.30;78.70;;;;;;5051570;28;20045;-76
2023/01/08 01:42:40;;;;;;;5.20;0.80;;;10.20;78.80;;;;;;5056613;28;20045;-76
2023/01/08 01:45:16;;;;;;;4.43;0.70;;;10.20;78.80;;;;;;5066279;28;20140;-77
2023/01/08 01:47:47;;;;;;;5.63;1.00;;;10.10;78.70;;;;;;5060652;28;20049;-77
2023/01/08 01:50:17;;;;;;;6.10;0.80;;;10.10;78.90;;;;;;5058852;28;20980;-76
2023/01/08 01:52:50;;;;;;;4.15;0.70;;;10.00;78.50;;;;;;5063869;28;20156;-76
2023/01/08 01:55:18;;;;;;;7.13;0.53;;;10.00;78.30;;;;;;5049194;28;20049;-76
2023/01/08 01:57:52;;;;;;;8.73;1.33;;;10.00;78.30;;;;;;5056745;28;20054;-76
2023/01/08 02:00:21;;;;;;;6.68;0.80;;;10.00;78.20;;;;;;5050452;28;20192;-76
2023/01/08 02:02:49;;;;;;;7.30;0.85;;;9.80;78.20;;;;;;5045957;28;20526;-76
2023/01/08 02:05:16;;;;;;;4.90;0.60;;;9.80;78.40;;;;;;5041072;28;20049;-75
2023/01/08 02:07:50;;;;;;;8.57;0.87;;;9.80;78.40;;;;;;5054832;28;20061;-77
2023/01/08 02:10:25;;;;;;;4.35;0.60;;;9.70;78.40;;;;;;5053881;28;20045;-76
2023/01/08 02:12:56;;;;;;;8.75;1.02;;;9.70;78.40;;;;;;5064595;28;20144;-76
2023/01/08 02:15:46;;;;;;;6.47;0.60;;;9.60;78.60;;;;;;5034191;28;20148;-76
2023/01/08 02:18:18;;;;;;;8.85;1.00;;;9.60;78.70;;;;;;5055258;28;20057;-78
2023/01/08 02:20:53;;;;;;;8.83;1.27;;;9.60;78.70;;;;;;5060746;28;20495;-77
2023/01/08 02:23:30;;;;;;;7.28;0.95;;;9.60;78.70;;;;;;5042955;28;20124;-77
2023/01/08 02:26:13;;;;;;;6.82;0.93;;;9.50;78.70;;;;;;5059956;28;20135;-77
2023/01/08 02:28:43;;;;;;;9.82;1.05;;;9.50;78.80;;;;;;5071111;28;20154;-76
2023/01/08 02:31:12;;;;;;;7.25;1.08;;;9.50;78.90;;;;;;5069670;28;20081;-77
2023/01/08 02:33:40;;;;;;;6.13;0.57;;;9.50;79.00;;;;;;5048841;28;20046;-77
2023/01/08 02:36:30;;;;;;;5.63;0.73;;;9.50;79.00;;;;;;5057804;28;20553;-76
2023/01/08 02:39:10;;;;;;;6.63;0.90;;;9.50;79.20;;;;;;5056827;28;20688;-76
2023/01/08 02:42:03;;;;;;;8.35;0.88;;;9.40;79.40;;;;;;5048860;28;20148;-77
2023/01/08 02:44:37;;;;;;;4.47;0.60;;;9.40;79.60;;;;;;5054822;28;20137;-77
2023/01/08 02:47:08;;;;;;;6.80;0.87;;;9.40;79.90;;;;;;5042890;28;20056;-76
2023/01/08 02:49:40;;;;;;;6.75;0.80;;;9.40;80.10;;;;;;5055570;28;20076;-77
2023/01/08 02:52:10;;;;;;;7.88;0.93;;;9.40;80.20;;;;;;5053445;28;20099;-77
2023/01/08 02:54:39;;;;;;;7.55;0.90;;;9.40;80.30;;;;;;5037023;28;20124;-77
2023/01/08 02:57:12;;;;;;;7.68;1.10;;;9.40;80.40;;;;;;5057023;28;20045;-77
2023/01/08 02:59:41;;;;;;;5.03;0.73;;;9.40;80.60;;;;;;5060809;28;20049;-77
2023/01/08 03:02:09;;;;;;;7.40;0.90;;;9.40;80.60;;;;;;5055156;28;20054;-76
2023/01/08 03:04:40;;;;;;;6.88;0.80;;;9.40;80.70;;;;;;5054653;28;20151;-77
2023/01/08 03:07:11;;;;;;;6.28;0.77;;;9.40;81.00;;;;;;5057415;28;20045;-76
2023/01/08 03:09:39;;;;;;;5.78;0.70;;;9.30;81.00;;;;;;5065296;28;20053;-77
2023/01/08 03:12:15;;;;;;;4.80;0.90;;;9.30;81.10;;;;;;5050598;28;20565;-77
2023/01/08 03:14:47;;;;;;;6.25;1.02;;;9.30;81.20;;;;;;5053904;28;20041;-77
2023/01/08 03:17:19;;;;;;;5.32;1.13;;;9.30;81.40;;;;;;5037984;28;20499;-77
2023/01/08 03:19:50;;;;;;;7.15;1.20;;;9.30;81.50;;;;;;5059734;28;20160;-77
2023/01/08 03:22:19;;;;;;;5.28;1.23;;;9.20;81.50;;;;;;5064651;28;20419;-77
2023/01/08 03:24:48;;;;;;;4.73;1.20;;;9.20;81.60;;;;;;5053728;28;20125;-77
2023/01/08 03:27:19;;;;;;;5.47;1.00;;;9.20;81.70;;;;;;5048295;28;20081;-77
2023/01/08 03:29:51;;;;;;;4.88;1.15;;;9.20;81.80;;;;;;5048372;28;20135;-78
2023/01/08 03:32:21;;;;;;;4.15;1.10;;;9.20;82.10;;;;;;5047729;28;20111;-77
2023/01/08 03:34:52;;;;;;;7.43;1.88;;;9.20;82.10;;;;;;5061283;28;20481;-77
2023/01/08 03:37:24;;;;;;;6.17;1.43;;;9.20;82.30;;;;;;5069855;28;20124;-77
2023/01/08 03:39:55;;;;;;;4.72;1.30;;;9.20;82.50;;;;;;5043421;28;20060;-77
2023/01/08 03:42:26;;;;;;;4.47;1.35;;;9.20;82.60;;;;;;5059336;28;20596;-77
2023/01/08 03:44:53;;;;;;;6.90;1.50;;;9.20;82.80;;;;;;5055868;28;20049;-77
2023/01/08 03:47:22;;;;;;;5.72;1.30;;;9.20;82.80;;;;;;5068563;28;20060;-77
2023/01/08 03:49:52;;;;;;;5.33;1.53;;;9.20;82.90;;;;;;5062571;28;20049;-77
2023/01/08 03:52:23;;;;;;;5.45;1.77;;;9.20;83.00;;;;;;5062127;28;20140;-77
2023/01/08 03:54:51;;;;;;;6.10;2.60;;;9.30;83.20;;;;;;5068385;28;20053;-77
2023/01/08 03:57:18;;;;;;;6.07;2.03;;;9.30;83.40;;;;;;5063371;28;20091;-77
2023/01/08 03:59:48;;;;;;;5.57;2.63;;;9.30;83.60;;;;;;5053052;28;20050;-77
2023/01/08 04:02:16;;;;;;;6.77;2.20;;;9.40;83.90;;;;;;5038435;28;20092;-77
2023/01/08 04:04:43;;;;;;;6.78;2.15;;;9.40;84.00;;;;;;5037262;28;20481;-76
2023/01/08 04:07:11;;;;;;;5.97;2.30;;;9.40;84.10;;;;;;5060347;28;20049;-76
2023/01/08 04:09:38;;;;;;;6.70;2.10;;;9.40;84.00;;;;;;5034832;28;20048;-76
2023/01/08 04:12:06;;;;;;;5.25;1.83;;;9.40;84.00;;;;;;5049594;28;20056;-77
2023/01/08 04:14:33;;;;;;;6.80;1.80;;;9.40;84.10;;;;;;5056568;28;20120;-78
2023/01/08 04:17:01;;;;;;;5.18;1.80;;;9.40;84.10;;;;;;5047934;28;20084;-77
2023/01/08 04:19:28;;;;;;;5.82;1.90;;;9.50;84.20;;;;;;5047610;28;20049;-76
2023/01/08 04:21:56;;;;;;;5.07;1.92;;;9.50;84.10;;;;;;5053380;28;20132;-76
2023/01/08 04:24:23;;;;;;;5.75;1.70;;;9.50;84.20;;;;;;5051519;28;20486;-77
2023/01/08 04:26:50;;;;;;;6.10;1.90;;;9.50;84.10;;;;;;5057498;28;20056;-76
2023/01/08 04:29:17;;;;;;;4.85;1.30;;;9.50;84.10;;;;;;5054330;28;20052;-77
2023/01/08 04:31:44;;;;;;;5.18;1.20;;;9.60;83.80;;;;;;5058184;28;20085;-76
2023/01/08 04:34:12;;;;;;;3.80;1.40;;;9.50;83.80;;;;;;5049204;28;20553;-76
2023/01/08 04:36:39;;;;;;;4.50;1.20;;;9.50;83.70;;;;;;5066670;28;20045;-77
2023/01/08 04:39:08;;;;;;;4.23;1.23;;;9.50;83.70;;;;;;5056402;28;20156;-76
2023/01/08 04:41:35;;;;;;;4.35;1.40;;;9.50;83.70;;;;;;5045709;28;20045;-77
2023/01/08 04:44:02;;;;;;;4.93;1.20;;;9.50;83.70;;;;;;5040676;28;20103;-76
2023/01/08 04:46:29;;;;;;;4.63;1.30;;;9.50;83.90;;;;;;5055412;28;20041;-77
2023/01/08 04:48:56;;;;;;;4.82;1.30;;;9.50;84.00;;;;;;5057068;28;20137;-76
2023/01/08 04:51:25;;;;;;;4.03;1.20;;;9.50;84.10;;;;;;5052860;28;20049;-77
2023/01/08 04:53:52;;;;;;;3.50;1.10;;;9.50;84.20;;;;;;5049807;28;20211;-77
2023/01/08 04:56:19;;;;;;;4.03;1.15;;;9.40;84.30;;;;;;5059293;28;20071;-77
2023/01/08 04:58:46;;;;;;;4.00;1.08;;;9.40;84.40;;;;;;5050963;28;20152;-77
2023/01/08 05:01:18;;;;;;;4.07;1.30;;;9.40;84.40;;;;;;5046943;28;20553;-77
2023/01/08 05:03:45;;;;;;;3.73;1.20;;;9.40;84.50;;;;;;5044801;28;20574;-77
2023/01/08 05:06:12;;;;;;;3.75;0.90;;;9.40;84.40;;;;;;5052261;28;20050;-77
2023/01/08 05:08:41;;;;;;;4.13;1.05;;;9.40;84.40;;;;;;5054438;28;20045;-77
2023/01/08 05:11:08;;;;;;;4.75;1.10;;;9.40;84.60;;;;;;5051005;28;20119;-77
2023/01/08 05:13:35;;;;;;;4.03;1.10;;;9.40;84.40;;;;;;5063643;28;20140;-77
2023/01/08 05:16:03;;;;;;;3.67;1.10;;;9.40;84.60;;;;;;5032447;28;20054;-76
2023/01/08 05:18:30;;;;;;;3.13;0.88;;;9.40;84.50;;;;;;5048466;28;20108;-77
2023/01/08 05:21:00;;;;;;;3.10;1.10;;;9.40;84.40;;;;;;5048562;28;20107;-77
2023/01/08 05:23:28;;;;;;;4.30;1.17;;;9.40;84.50;;;;;;5052485;28;20071;-77
2023/01/08 05:25:58;;;;;;;9.05;1.20;;;9.40;84.40;;;;;;5055987;28;20045;-77
2023/01/08 05:28:27;;;;;;;4.23;1.00;;;9.40;84.60;;;;;;5059355;28;20107;-78
2023/01/08 05:30:54;;;;;;;3.53;1.10;;;9.40;84.40;;;;;;5058203;28;20055;-77
2023/01/08 05:33:22;;;;;;;4.20;1.35;;;9.40;84.50;;;;;;5057410;28;20128;-77
2023/01/08 05:35:50;;;;;;;5.18;1.35;;;9.40;84.40;;;;;;5055487;28;20099;-76
2023/01/08 05:38:17;;;;;;;5.57;1.38;;;9.40;84.50;;;;;;5046900;28;20128;-77
2023/01/08 05:40:44;;;;;;;4.63;1.13;;;9.30;84.40;;;;;;5055149;28;20568;-77
2023/01/08 05:43:13;;;;;;;4.72;1.50;;;9.30;84.50;;;;;;5053444;28;20133;-77
2023/01/08 05:45:40;;;;;;;4.15;1.65;;;9.30;84.60;;;;;;5054438;28;20050;-77
2023/01/08 05:48:07;;;;;;;4.28;1.38;;;9.30;84.60;;;;;;5059480;28;20303;-76
2023/01/08 05:50:35;;;;;;;6.38;1.50;;;9.30;84.90;;;;;;5055769;28;20100;-77
2023/01/08 05:53:06;;;;;;;4.00;1.67;;;9.30;84.80;;;;;;5055075;28;20117;-76
2023/01/08 05:55:33;;;;;;;4.93;1.75;;;9.30;85.00;;;;;;5064155;28;20081;-77
2023/01/08 05:58:01;;;;;;;4.95;1.50;;;9.30;84.90;;;;;;5057004;28;20053;-77
2023/01/08 06:00:30;;;;;;;6.07;1.95;;;9.20;85.00;;;;;;5040607;28;20057;-77
2023/01/08 06:02:57;;;;;;;6.07;1.92;;;9.20;85.00;;;;;;5035650;28;20575;-76
2023/01/08 06:05:24;;;;;;;4.73;1.43;;;9.20;85.20;;;;;;5054025;28;20107;-77
2023/01/08 06:07:51;;;;;;;5.90;1.48;;;9.20;85.20;;;;;;5051172;28;20157;-77
2023/01/08 06:10:19;;;;;;;5.97;1.90;;;9.20;85.10;;;;;;5059751;28;20057;-77
2023/01/08 06:12:46;;;;;;;5.70;1.50;;;9.20;85.20;;;;;;5048001;28;20149;-76
2023/01/08 06:15:13;;;;;;;4.95;1.30;;;9.20;85.10;;;;;;5066579;28;20096;-77
2023/01/08 06:17:41;;;;;;;5.50;1.67;;;9.20;85.10;;;;;;5063696;28;20055;-77
2023/01/08 06:20:10;;;;;;;4.30;1.23;;;9.20;85.00;;;;;;5063144;28;20156;-77
2023/01/08 06:22:37;;;;;;;5.22;1.70;;;9.20;85.00;;;;;;5048066;28;20057;-76
2023/01/08 06:25:05;;;;;;;5.93;1.30;;;9.20;84.90;;;;;;5033742;28;20063;-77
2023/01/08 06:27:32;;;;;;;4.63;1.20;;;9.20;85.00;;;;;;5052861;28;20567;-78
2023/01/08 06:29:59;;;;;;;5.17;1.00;;;9.20;84.90;;;;;;5059151;28;20053;-77
2023/01/08 06:32:26;;;;;;;7.00;1.20;;;9.20;84.90;;;;;;5046180;28;20062;-77
2023/01/08 06:34:54;;;;;;;5.90;1.33;;;9.10;85.00;;;;;;5060023;28;20732;-77
2023/01/08 06:37:21;;;;;;;4.95;1.15;;;9.10;84.80;;;;;;5049889;28;20080;-76
2023/01/08 06:39:48;;;;;;;5.75;1.48;;;9.10;84.80;;;;;;5054128;28;20050;-77
2023/01/08 06:42:16;;;;;;;5.33;1.20;;;9.10;84.70;;;;;;5045192;28;20431;-77
2023/01/08 06:44:43;;;;;;;4.80;1.00;;;9.10;84.60;;;;;;5043602;28;20923;-77
2023/01/08 06:47:10;;;;;;;5.45;1.17;;;9.00;84.70;;;;;;5053185;28;20529;-77
2023/01/08 06:49:37;;;;;;;4.28;0.73;;;9.00;84.60;;;;;;5057731;28;20057;-77
2023/01/08 06:52:05;;;;;;;3.33;0.73;;;9.00;84.60;;;;;;5061862;28;20053;-76
2023/01/08 06:54:32;;;;;;;4.77;1.00;;;9.00;84.60;;;;;;5067661;28;20990;-77
2023/01/08 06:57:00;;;;;;;5.32;1.00;;;9.00;84.70;;;;;;5061877;28;20072;-77
2023/01/08 06:59:27;;;;;;;5.65;0.82;;;9.00;84.60;;;;;;5052473;28;20050;-77
2023/01/08 07:01:54;;;;;;;3.70;0.70;;;8.90;84.50;;;;;;5048970;28;20048;-77
2023/01/08 07:04:21;;;;;;;4.90;0.70;;;8.90;84.70;;;;;;5047051;28;20140;-77
2023/01/08 07:06:48;;;;;;;5.57;0.80;;;8.90;84.70;;;;;;5047423;28;20137;-77
2023/01/08 07:09:16;;;;;;;3.63;0.90;;;8.90;84.70;;;;;;5060685;28;20491;-76
2023/01/08 07:11:43;;;;;;;5.07;0.85;;;8.90;84.70;;;;;;5059987;28;20045;-77
2023/01/08 07:14:11;;;;;;;5.15;0.70;;;8.80;84.70;;;;;;5065470;28;20126;-77
2023/01/08 07:16:38;;;;;;;5.88;0.90;;;8.90;84.80;;;;;;5060393;28;20053;-77
2023/01/08 07:19:05;;;;;;;6.60;0.90;;;8.80;84.80;;;;;;5052180;28;20137;-77
2023/01/08 07:21:32;;;;;;;4.43;0.77;;;8.80;84.70;;;;;;5055603;28;20383;-76
2023/01/08 07:23:59;;;;;;;3.50;0.80;;;8.80;84.90;;;;;;5066195;28;20055;-77
2023/01/08 07:26:28;;;;;;;4.88;0.93;;;8.80;84.80;;;;;;5060782;28;20256;-77
2023/01/08 07:28:55;;;;;;;6.25;0.80;;;8.80;84.80;;;;;;5052711;28;20056;-77
2023/01/08 07:31:22;;;;;;;5.87;1.30;;;8.80;84.90;;;;;;5060181;28;20049;-77
2023/01/08 07:33:49;;;;;;;5.70;0.80;;;8.80;84.90;;;;;;5059576;28;20049;-78
2023/01/08 07:36:21;;;;;;;7.10;1.17;;;8.70;84.90;;;;;;5052348;28;20136;-77
2023/01/08 07:38:48;;;;;;;4.55;1.00;;;8.80;85.10;;;;;;5065077;28;20168;-78
2023/01/08 07:41:16;;;;;;;5.00;1.10;;;8.70;85.20;;;;;;5068338;28;20049;-77
2023/01/08 07:43:47;;;;;;;5.33;1.10;;;8.70;85.20;;;;;;5068361;28;20045;-77
2023/01/08 07:46:14;;;;;;;5.82;1.02;;;8.70;85.30;;;;;;5050754;28;20045;-77
2023/01/08 07:48:41;;;;;;;6.10;1.58;;;8.80;85.20;;;;;;5042250;28;20089;-77
2023/01/08 07:51:10;;;;;;;7.80;1.52;;;8.80;85.10;;;;;;5035668;28;20656;-76
2023/01/08 07:53:37;;;;;;;5.82;1.40;;;8.70;85.10;;;;;;5034258;28;20813;-77
2023/01/08 07:56:07;;;;;;;5.33;1.17;;;8.80;85.00;;;;;;5043161;28;20147;-77
2023/01/08 07:58:35;;;;;;;6.25;1.00;;;8.70;85.00;;;;;;5067959;28;20048;-77
2023/01/08 08:01:05;;;;;;;5.47;1.42;;;8.70;85.00;;;;;;5044456;28;20080;-77
2023/01/08 08:03:32;;;;;;;7.10;1.50;;;8.70;84.90;;;;;;5051102;28;20257;-76
2023/01/08 08:06:00;;;;;;;6.50;1.20;;;8.70;84.90;;;;;;5049490;28;20133;-77
2023/01/08 08:08:27;;;;;;;4.10;0.70;;;8.60;84.80;;;;;;5064704;28;20079;-77
2023/01/08 08:10:54;;;;;;;5.30;1.10;;;8.60;84.80;;;;;;5051927;28;20050;-77
2023/01/08 08:13:21;;;;;;;5.55;1.17;;;8.60;84.80;;;;;;5050646;28;20492;-77
2023/01/08 08:15:48;;;;;;;7.03;1.20;;;8.60;84.70;;;;;;5052119;28;20111;-76
2023/01/08 08:18:17;;;;;;;5.53;1.10;;;8.60;84.70;;;;;;5054326;28;20049;-77
2023/01/08 08:20:44;;;;;;;6.87;1.00;;;8.60;84.70;;;;;;5048462;28;20116;-77
2023/01/08 08:23:13;;;;;;;5.57;1.10;;;8.60;84.60;;;;;;5056302;28;20049;-77
2023/01/08 08:25:41;;;;;;;5.57;1.42;;;8.50;84.60;;;;;;5053776;28;20060;-77
2023/01/08 08:28:10;;;;;;;7.00;2.08;;;8.50;84.60;;;;;;5036410;28;20057;-77
2023/01/08 08:30:38;;;;;;;8.52;3.33;;;8.50;84.70;;;;;;5051224;28;20138;-77
2023/01/08 08:33:06;;;;;;;6.23;2.77;;;8.50;84.70;;;;;;5038667;28;20128;-77
2023/01/08 08:35:35;;;;;;;6.03;2.42;;;8.50;84.70;;;;;;5051233;28;20136;-78
2023/01/08 08:38:03;;;;;;;5.82;1.50;;;8.40;84.70;;;;;;5045613;28;20147;-78
2023/01/08 08:40:30;;;;;;;5.05;0.90;;;8.50;84.70;;;;;;5044601;28;20511;-79
2023/01/08 08:43:00;;;;;;;6.32;1.27;;;8.40;84.60;;;;;;5045097;28;20104;-78
2023/01/08 08:45:28;;;;;;;5.00;1.13;;;8.40;84.60;;;;;;5047325;28;20060;-79
2023/01/08 08:47:55;;;;;;;5.15;1.08;;;8.40;84.50;;;;;;5046297;28;20050;-77
2023/01/08 08:50:22;;;;;;;5.10;0.95;;;8.50;84.60;;;;;;5046333;28;20168;-79
2023/01/08 08:52:50;;;;;;;5.15;0.90;;;8.40;84.50;;;;;;5045302;28;20042;-80
2023/01/08 08:55:17;;;;;;;5.80;0.80;;;8.40;84.30;;;;;;5048134;28;20057;-78
2023/01/08 08:57:45;;;;;;;5.23;0.80;;;8.40;84.20;;;;;;5021390;28;20137;-77
2023/01/08 09:00:15;;;;;;;5.63;1.00;;;8.40;84.20;;;;;;5023590;28;20050;-78
2023/01/08 09:02:42;;;;;;;4.00;1.27;;;8.40;84.20;;;;;;5032302;28;20045;-79
2023/01/08 09:05:10;;;;;;;6.60;1.02;;;8.40;84.20;;;;;;5059163;28;20053;-77
2023/01/08 09:07:37;;;;;;;5.53;0.80;;;8.40;84.20;;;;;;5055473;28;20132;-78
2023/01/08 09:10:07;;;;;;;3.93;1.03;;;8.40;84.20;;;;;;5048909;28;20077;-78
2023/01/08 09:12:35;;;;;;;6.25;0.98;;;8.40;84.20;;;;;;5036084;28;20148;-79
2023/01/08 09:15:02;;;;;;;4.68;1.00;;;8.40;84.20;;;;;;5041928;28;20053;-78
2023/01/08 09:17:29;;;;;;;5.22;1.10;;;8.40;84.20;;;;;;5042708;28;20065;-79
2023/01/08 09:19:56;;;;;;;3.25;1.00;;;8.40;84.00;;;;;;5037597;28;20042;-79
2023/01/08 09:22:23;;;;;;;6.13;1.50;;;8.40;84.00;;;;;;5042400;28;20180;-79
2023/01/08 09:24:50;;;;;;;6.85;3.20;;;8.40;83.90;;;;;;5046431;28;20151;-78
2023/01/08 09:27:18;;;;;;;6.57;2.20;;;8.40;83.80;;;;;;5048330;28;20128;-80
2023/01/08 09:29:46;;;;;;;5.95;1.40;;;8.40;83.70;;;;;;5048323;28;20056;-78
2023/01/08 09:32:13;;;;;;;4.88;1.25;;;8.40;83.70;;;;;;5041415;28;20163;-78
2023/01/08 09:34:40;;;;;;;5.67;1.30;;;8.40;83.60;;;;;;5047343;28;20160;-78
2023/01/08 09:37:08;;;;;;;5.70;1.20;;;8.40;83.50;;;;;;5034023;28;20087;-77
2023/01/08 09:39:36;;;;;;;6.35;0.82;;;8.40;83.20;;;;;;5048162;28;20077;-79
2023/01/08 09:42:05;;;;;;;4.97;0.80;;;8.40;82.90;;;;;;5033093;28;20593;-79
2023/01/08 09:44:38;;;;;;;6.03;1.27;;;8.40;82.70;;;;;;5048367;28;20056;-78
2023/01/08 09:47:17;;;;;;;8.40;1.00;;;8.40;82.60;;;;;;5046915;28;20049;-78
2023/01/08 09:49:46;;;;;;;5.25;0.80;;;8.40;82.30;;;;;;5047236;28;20080;-78
2023/01/08 09:52:16;;;;;;;4.63;0.90;;;8.50;81.90;;;;;;5041056;28;20495;-77
2023/01/08 09:54:43;;;;;;;7.25;0.80;;;8.50;81.80;;;;;;5046700;28;20060;-78
2023/01/08 09:57:14;;;;;;;7.88;0.93;;;8.50;81.70;;;;;;5048036;28;20136;-80
2023/01/08 09:59:43;;;;;;;6.93;0.90;;;8.50;81.20;;;;;;5047989;28;20050;-79
2023/01/08 10:02:14;;;;;;;7.80;1.20;;;8.60;81.00;;;;;;5045676;28;20057;-78
2023/01/08 10:04:42;;;;;;;6.93;1.10;;;8.60;80.60;;;;;;5051382;28;20554;-77
2023/01/08 10:07:17;;;;;;;6.53;1.10;;;8.60;80.20;;;;;;5049672;28;20962;-78
2023/01/08 10:09:45;;;;;;;6.70;1.10;;;8.60;80.50;;;;;;5043061;28;20045;-78
2023/01/08 10:12:13;;;;;;;8.50;0.83;;;8.60;80.30;;;;;;5045740;28;20612;-78
2023/01/08 10:14:47;;;;;;;6.07;1.00;;;8.60;80.00;;;;;;5040128;28;20046;-79
2023/01/08 10:17:23;;;;;;;9.38;1.20;;;8.60;80.00;;;;;;5036497;28;20045;-78
2023/01/08 10:19:50;;;;;;;7.05;1.20;;;8.60;79.70;;;;;;5039813;28;20527;-78
2023/01/08 10:22:20;;;;;;;6.57;1.00;;;8.60;79.80;;;;;;5035274;28;20045;-78
2023/01/08 10:24:47;;;;;;;7.60;1.00;;;8.70;79.50;;;;;;5038030;28;20420;-78
2023/01/08 10:27:17;;;;;;;8.60;0.77;;;8.80;79.50;;;;;;5038142;28;20082;-78
2023/01/08 10:29:46;;;;;;;9.45;1.10;;;8.80;79.30;;;;;;4989186;28;20054;-79
2023/01/08 10:32:16;;;;;;;7.95;1.10;;;8.80;78.90;;;;;;5040994;28;20045;-76
2023/01/08 10:34:47;;;;;;;5.95;0.80;;;8.90;78.60;;;;;;5055276;28;20111;-81
2023/01/08 10:37:22;;;;;;;7.60;1.20;;;8.80;78.70;;;;;;5038451;28;20080;-79
2023/01/08 10:39:50;;;;;;;5.82;1.08;;;8.90;78.80;;;;;;5047983;28;20118;-78
2023/01/08 10:42:20;;;;;;;9.73;1.30;;;8.90;79.00;;;;;;5047959;28;20049;-79
2023/01/08 10:44:55;;;;;;;7.00;0.90;;;8.90;79.00;;;;;;5050270;28;20053;-80
2023/01/08 10:47:23;;;;;;;8.60;1.30;;;8.90;78.70;;;;;;5049101;28;20054;-78
2023/01/08 10:49:51;;;;;;;9.87;1.40;;;9.00;78.70;;;;;;5048621;28;20049;-78
2023/01/08 10:52:27;;;;;;;9.40;1.23;;;9.00;78.40;;;;;;5033814;28;20049;-79
2023/01/08 10:54:54;;;;;;;8.13;1.40;;;9.00;77.70;;;;;;5051581;28;20049;-78
2023/01/08 10:57:24;;;;;;;6.45;0.95;;;9.00;77.80;;;;;;5047951;28;20586;-78
2023/01/08 10:59:53;;;;;;;7.95;0.98;;;9.00;77.90;;;;;;5045117;28;20128;-79
2023/01/08 11:02:29;;;;;;;8.20;1.27;;;9.00;78.10;;;;;;5046511;28;20054;-79
2023/01/08 11:04:57;;;;;;;9.15;1.40;;;9.10;78.20;;;;;;5049112;28;20132;-79
2023/01/08 11:07:24;;;;;;;7.68;1.15;;;9.20;77.80;;;;;;5050812;28;21205;-80
2023/01/08 11:10:23;;;;;;;6.78;1.20;;;9.20;77.40;;;;;;5031436;28;20149;-79
2023/01/08 11:12:55;;;;;;;9.38;1.38;;;9.20;76.80;;;;;;5046665;28;20160;-79
2023/01/08 11:15:36;;;;;;;11.60;1.47;;;9.20;77.10;;;;;;5048901;28;20085;-79
2023/01/08 11:18:17;;;;;;;9.75;1.40;;;9.30;76.70;;;;;;5050419;28;20084;-79
2023/01/08 11:20:44;;;;;;;8.43;1.48;;;9.20;77.20;;;;;;5049819;28;20435;-79
2023/01/08 11:23:17;;;;;;;8.65;1.25;;;9.30;76.90;;;;;;5051813;28;20438;-78
2023/01/08 11:25:48;;;;;;;4.93;0.65;;;9.40;76.50;;;;;;5048258;28;20092;-80
2023/01/08 11:28:21;;;;;;;8.37;0.87;;;9.40;76.50;;;;;;5050820;28;20578;-80
2023/01/08 11:30:54;;;;;;;7.55;1.30;;;9.40;76.50;;;;;;5034837;28;20135;-78
2023/01/08 11:33:25;;;;;;;9.57;1.30;;;9.40;76.30;;;;;;5054167;28;20053;-79
2023/01/08 11:35:59;;;;;;;8.48;1.10;;;9.50;76.10;;;;;;5056551;28;20530;-79
2023/01/08 11:38:26;;;;;;;10.23;1.48;;;9.50;76.20;;;;;;5048441;28;20060;-79
2023/01/08 11:41:03;;;;;;;9.67;1.60;;;9.50;76.30;;;;;;4998716;28;20056;-79
2023/01/08 11:43:39;;;;;;;9.23;1.88;;;9.50;76.20;;;;;;5047139;28;20053;-79
2023/01/08 11:46:23;;;;;;;9.13;1.60;;;9.50;76.20;;;;;;5042327;28;20055;-79
2023/01/08 11:49:05;;;;;;;9.30;1.85;;;9.50;76.30;;;;;;5028498;28;20049;-79
2023/01/08 11:51:42;;;;;;;13.68;1.80;;;9.50;76.30;;;;;;5048030;28;20103;-78
2023/01/08 11:54:23;;;;;;;9.40;1.60;;;9.50;76.40;;;;;;5043201;28;20085;-78
2023/01/08 11:57:08;;;;;;;7.93;1.58;;;9.50;76.50;;;;;;5054070;28;20050;-78
2023/01/08 11:59:58;;;;;;;9.30;1.15;;;9.50;76.30;;;;;;5047755;28;20050;-78
2023/01/08 12:02:40;;;;;;;8.75;1.40;;;9.50;76.30;;;;;;5048595;28;20132;-79
2023/01/08 12:05:25;;;;;;;8.43;1.73;;;9.50;76.40;;;;;;5045843;28;20061;-79
2023/01/08 12:08:00;;;;;;;7.80;1.50;;;9.50;76.50;;;;;;5051930;28;20136;-79
2023/01/08 12:10:36;;;;;;;9.95;1.70;;;9.50;76.50;;;;;;5044733;28;20132;-78
2023/01/08 12:13:15;;;;;;;8.48;1.35;;;9.50;76.60;;;;;;5052535;28;20050;-79
2023/01/08 12:15:53;;;;;;;8.93;1.70;;;9.50;76.70;;;;;;5044096;28;20836;-80
2023/01/08 12:18:42;;;;;;;8.18;1.63;;;9.50;76.70;;;;;;5046743;28;20055;-80
2023/01/08 12:21:14;;;;;;;9.07;1.30;;;9.50;76.40;;;;;;5046253;28;20153;-80
2023/01/08 12:23:58;;;;;;;5.90;1.25;;;9.50;76.30;;;;;;5047002;28;20052;-80
2023/01/08 12:26:32;;;;;;;7.50;1.70;;;9.50;76.60;;;;;;5040108;28;20061;-81
2023/01/08 12:29:23;;;;;;;7.72;1.30;;;9.60;75.90;;;;;;5055115;28;20188;-80
2023/01/08 12:32:13;;;;;;;10.15;1.83;;;9.60;75.90;;;;;;5038917;28;20589;-81
2023/01/08 12:34:50;;;;;;;9.80;1.60;;;9.50;76.50;;;;;;5052108;28;20056;-79
2023/01/08 12:37:23;;;;;;;8.48;1.52;;;9.60;76.40;;;;;;5064681;28;20144;-79
2023/01/08 12:39:59;;;;;;;6.72;1.17;;;9.60;76.90;;;;;;5055067;28;20055;-78
2023/01/08 12:42:29;;;;;;;7.05;1.05;;;9.60;76.60;;;;;;5046803;28;20459;-79
2023/01/08 12:44:59;;;;;;;7.95;1.42;;;9.70;76.40;;;;;;5045927;28;20200;-79
2023/01/08 12:47:30;;;;;;;7.17;1.20;;;9.70;76.40;;;;;;5048542;28;20052;-79
2023/01/08 12:50:10;;;;;;;7.32;1.10;;;9.70;76.00;;;;;;5060368;28;20055;-80
2023/01/08 12:52:45;;;;;;;8.15;1.70;;;9.70;75.80;;;;;;5061341;28;20056;-79
2023/01/08 12:55:26;;;;;;;8.10;1.50;;;9.70;75.90;;;;;;5047079;28;20050;-80
2023/01/08 12:58:00;;;;;;;7.03;1.33;;;9.80;75.90;;;;;;5058256;28;20050;-79
2023/01/08 13:00:35;;;;;;;6.83;1.00;;;9.80;75.60;;;;;;5048862;28;20073;-79
2023/01/08 13:03:04;;;;;;;8.07;1.35;;;9.80;75.70;;;;;;5047638;28;20053;-79
2023/01/08 13:05:35;;;;;;;8.15;1.20;;;9.80;75.90;;;;;;5049208;28;20140;-78
2023/01/08 13:08:05;;;;;;;7.60;1.10;;;9.80;75.60;;;;;;5048153;28;20049;-80
2023/01/08 13:10:38;;;;;;;7.53;1.20;;;9.90;75.30;;;;;;5030350;28;20064;-79